• Join FlightAware (Why Join?)
  • Login
  • US Flag 
10:19AM EST


 

Airport Tracker/Info


-or-


 

Live Flight TrackerFlight Track Log ✈ LXJ437 ✈ 23-Jun-2013 ✈ KGUC - KCIU

Flight Track Log - Related Links

Times and Time Zones

All times are in EDT time to prevent confusion due to time zone crossing. See the LXJ437 flight status page for this flight to view local times or setup timezone preferences in your user account.

Time Position Orientation Groundspeed Altitude Reporting Facility
EDT Latitude Longitude Course Direction KTS MPH feet Rate Location/Type
02:10PM 38.6422 -106.7708 54° Northeast 270 311 16,700  Level Denver Center
02:11PM 38.6911 -106.6886 53° Northeast 286 329 18,900 1,800 Climbing Denver Center
02:12PM 38.7436 -106.6161 47° Northeast 329 379 20,500 1,980 Climbing Denver Center
02:13PM 38.8319 -106.4892 48° Northeast 393 452 23,000 2,580 Climbing Denver Center
02:14PM 38.9075 -106.3472 56° Northeast 434 499 25,900 2,220 Climbing Denver Center
02:15PM 38.8520 -106.4508 54° Northeast  Level FlightAware Approximate
02:15PM 38.9728 -106.2231 56° Northeast 439 505 27,600  Level Denver Center
02:16PM 39.0533 -106.0703 56° Northeast 462 532 29,800 2,100 Climbing Denver Center
02:17PM 39.1250 -105.9319 56° Northeast 466 536 32,000 1,860 Climbing Denver Center
02:18PM 39.1964 -105.7925 57° Northeast 464 534 33,700 1,440 Climbing Denver Center
02:19PM 39.2700 -105.6503 56° Northeast 475 547 35,000 1,740 Climbing Denver Center
02:20PM 39.3567 -105.4794 57° Northeast 474 545 37,300 1,740 Climbing Denver Center
02:21PM 39.4300 -105.3383 56° Northeast 468 539 38,600 1,080 Climbing Denver Center
02:22PM 39.5011 -105.1978 57° Northeast 468 539 39,600 720 Climbing Denver Center
02:23PM 39.5728 -105.0556 57° Northeast 467 537 40,200 660 Climbing Denver Center
02:24PM 39.6464 -104.9081 57° Northeast 481 554 41,000 360 Climbing Denver Center
02:25PM 39.7247 -104.7542 56° Northeast 497 572 41,000  Level Denver Center
02:26PM 39.8039 -104.5978 57° Northeast 497 572 41,000 180 Level Denver Center
02:27PM 39.8786 -104.4458 57° Northeast 504 580 41,400 660 Climbing Denver Center
02:28PM 39.9503 -104.2961 58° Northeast 474 545 42,400 960 Climbing Denver Center
02:29PM 40.0361 -104.1192 58° Northeast 468 539 43,500 960 Climbing Denver Center
02:30PM 40.1061 -103.9736 58° Northeast 469 540 44,400 720 Climbing Denver Center
02:31PM 40.1753 -103.8319 57° Northeast 461 531 45,000 240 Climbing Denver Center
02:32PM 40.2458 -103.6908 57° Northeast 453 521 45,000  Level Denver Center
02:33PM 40.3156 -103.5436 58° Northeast 474 545 45,000  Level Denver Center
02:34PM 40.3872 -103.3928 58° Northeast 487 560 45,000  Level Denver Center
02:35PM 40.4600 -103.2422 58° Northeast 489 563 45,000  Level Denver Center
02:36PM 40.5469 -103.0581 58° Northeast 494 568 45,000  Level Denver Center
02:37PM 40.6178 -102.9058 58° Northeast 490 564 45,000  Level Denver Center
02:38PM 40.6908 -102.7497 58° Northeast 484 557 45,000  Level Denver Center
02:39PM 40.7592 -102.6047 58° Northeast 486 559 45,000  Level Denver Center
02:40PM 40.8375 -102.4358 58° Northeast 484 557 45,000  Level Denver Center
02:41PM 40.9056 -102.2894 58° Northeast 488 562 45,000  Level Denver Center
02:43PM 40.9833 -102.1189 59° Northeast 484 557 45,000  Level Denver Center
02:44PM 41.0522 -101.9703 58° Northeast 491 565 45,000  Level Denver Center
02:45PM 41.1192 -101.8217 59° Northeast 490 564 45,000  Level Denver Center
02:46PM 41.1986 -101.6486 59° Northeast 491 565 45,000  Level Denver Center
02:47PM 41.2656 -101.5003 59° Northeast 488 562 45,000  Level Denver Center
02:48PM 41.3450 -101.3242 59° Northeast 494 568 45,000  Level Denver Center
02:49PM 41.4119 -101.1733 59° Northeast 493 567 45,000  Level Denver Center
02:50PM 41.4919 -100.9956 59° Northeast 496 571 45,000  Level Denver Center
02:51PM 41.5575 -100.8428 60° Northeast 494 568 45,000  Level Denver Center
02:52PM 41.6247 -100.6894 60° Northeast 497 572 45,000  Level Denver Center
02:53PM 41.7008 -100.5144 60° Northeast 490 564 45,000  Level Denver Center
02:54PM 41.7658 -100.3636 60° Northeast 487 560 45,000  Level Denver Center
02:55PM 41.8411 -100.1878 60° Northeast 487 560 45,000  Level Denver Center
02:56PM 41.9058 -100.0375 60° Northeast 485 558 45,000  Level Denver Center
02:57PM 41.9817 -99.8617 60° Northeast 488 562 45,000  Level Denver Center
02:58PM 42.0467 -99.7061 61° Northeast 491 565 45,000  Level Denver Center
02:59PM 42.1158 -99.5439 60° Northeast 497 572 45,000  Level Denver Center
03:00PM 42.1706 -99.4150 60° Northeast 494 568 45,000  Level Minneapolis Center
03:01PM 42.2381 -99.2519 61° Northeast 496 571 45,000  Level Minneapolis Center
03:02PM 42.3047 -99.0900 61° Northeast 493 567 45,000  Level Minneapolis Center
03:03PM 42.3714 -98.9294 61° Northeast 489 563 45,000  Level Minneapolis Center
03:04PM 42.4372 -98.7681 61° Northeast 489 563 45,000  Level Minneapolis Center
03:05PM 42.5489 -98.5653 53° Northeast 480 552 45,000  Level Minneapolis Center
03:06PM 42.6350 -98.4286 49° Northeast 478 550 45,000  Level Minneapolis Center
03:07PM 42.7217 -98.2922 49° Northeast 477 549 45,000  Level Minneapolis Center
03:08PM 42.8108 -98.1517 49° Northeast 475 547 45,000  Level Minneapolis Center
03:09PM 42.8972 -98.0147 49° Northeast 477 549 45,000  Level Minneapolis Center
03:10PM 42.9825 -97.8775 50° Northeast 476 548 45,000  Level Minneapolis Center
03:11PM 43.0656 -97.7397 50° Northeast 471 542 45,000  Level Minneapolis Center
03:12PM 43.1672 -97.5772 49° Northeast 470 541 45,000  Level Minneapolis Center
03:13PM 43.2494 -97.4417 50° Northeast 465 535 45,000  Level Minneapolis Center
03:15PM 43.3328 -97.3056 50° Northeast 467 537 45,000  Level Minneapolis Center
03:16PM 43.4169 -97.1686 50° Northeast 469 540 45,000  Level Minneapolis Center
03:17PM 43.5003 -97.0281 51° Northeast 473 544 45,000  Level Minneapolis Center
03:18PM 43.6194 -96.8306 50° Northeast 479 551 45,000  Level Minneapolis Center
03:19PM 43.6975 -96.6822 54° Northeast 479 551 45,000  Level Minneapolis Center
03:20PM 43.7672 -96.5247 58° Northeast 481 554 45,000  Level Minneapolis Center
03:21PM 43.8392 -96.3675 58° Northeast 485 558 45,000  Level Minneapolis Center
03:22PM 43.9111 -96.2111 57° Northeast 487 560 45,000  Level Minneapolis Center
03:23PM 43.9969 -96.0222 58° Northeast 491 565 45,000  Level Minneapolis Center
03:24PM 44.0681 -95.8667 57° Northeast 488 562 45,000  Level Minneapolis Center
03:25PM 44.1375 -95.7122 58° Northeast 480 552 45,000  Level Minneapolis Center
03:26PM 44.2086 -95.5567 57° Northeast 480 552 45,000  Level Minneapolis Center
03:27PM 44.2911 -95.3717 58° Northeast 474 545 45,000  Level Minneapolis Center
03:28PM 44.3583 -95.2169 59° Northeast 470 541 45,000  Level Minneapolis Center
03:29PM 44.4272 -95.0611 58° Northeast 473 544 45,000  Level Minneapolis Center
03:30PM 44.4961 -94.9061 58° Northeast 473 544 45,000  Level Minneapolis Center
03:31PM 44.5647 -94.7500 58° Northeast 472 543 45,000  Level Minneapolis Center
03:32PM 44.6333 -94.5847 60° Northeast 465 535 45,000  Level Minneapolis Center
03:33PM 44.7006 -94.4294 59° Northeast 466 536 45,000  Level Minneapolis Center
03:34PM 44.7672 -94.2742 59° Northeast 464 534 45,000  Level Minneapolis Center
03:35PM 44.8467 -94.0883 59° Northeast 464 534 45,000  Level Minneapolis Center
03:36PM 44.9125 -93.9344 59° Northeast 459 528 45,000  Level Minneapolis Center
03:37PM 44.9772 -93.7806 59° Northeast 456 525 45,000  Level Minneapolis Center
03:39PM 45.0425 -93.6244 59° Northeast 459 528 45,000  Level Minneapolis Center
03:40PM 45.1197 -93.4381 60° Northeast 455 524 45,000  Level Minneapolis Center
03:41PM 45.1644 -93.2736 69° East 446 513 45,000  Level Minneapolis Center
03:42PM 45.1994 -93.0689 76° East 444 511 45,000  Level Minneapolis Center
03:43PM 45.2350 -92.8614 76° East 450 518 45,000  Level Minneapolis Center
03:44PM 45.2639 -92.6911 76° East 447 514 45,000  Level Minneapolis Center
03:45PM 45.2925 -92.5169 77° East 452 520 45,000  Level Minneapolis Center
03:46PM 45.3228 -92.3436 76° East 453 521 45,000  Level Minneapolis Center
03:47PM 45.3511 -92.1678 77° East 457 526 45,000  Level Minneapolis Center
03:48PM 45.3806 -91.9908 77° East 462 532 45,000  Level Minneapolis Center
03:49PM 45.4150 -91.7758 77° East 466 536 45,000  Level Minneapolis Center
03:50PM 45.4392 -91.5942 79° East 468 539 45,000  Level Minneapolis Center
03:51PM 45.4603 -91.4089 81° East 473 544 45,000  Level Minneapolis Center
03:52PM 45.4836 -91.2200 80° East 476 548 45,000  Level Minneapolis Center
03:53PM 45.5053 -91.0328 81° East 479 551 45,000  Level Minneapolis Center
03:54PM 45.5264 -90.8450 81° East 481 554 45,000  Level Minneapolis Center
03:55PM 45.5500 -90.6589 80° East 481 554 45,000  Level Minneapolis Center
03:57PM 45.5753 -90.4328 81° East 484 557 45,000  Level Minneapolis Center
03:58PM 45.5972 -90.2461 80° East 479 551 45,000  Level Minneapolis Center
03:59PM 45.6181 -90.0581 81° East 481 554 45,000  Level Minneapolis Center
04:00PM 45.6381 -89.8711 81° East 481 554 45,000  Level Minneapolis Center
04:01PM 45.6600 -89.6681 81° East 480 552 45,000  Level Minneapolis Center
04:02PM 45.6811 -89.4792 81° East 480 552 45,000  Level Minneapolis Center
04:03PM 45.7003 -89.2892 82° East 480 552 45,000  Level Minneapolis Center
04:04PM 45.7233 -89.0681 81° East 481 554 45,000  Level Minneapolis Center
04:05PM 45.7400 -88.8964 82° East 484 557 45,000  Level Minneapolis Center
04:06PM 45.7581 -88.7086 82° East 482 555 45,000  Level Minneapolis Center
04:07PM 45.7772 -88.5231 82° East 476 548 45,000  Level Minneapolis Center
04:08PM 45.7981 -88.2972 82° East 479 551 45,000 -300 Level Minneapolis Center
04:09PM 45.8167 -88.1083 82° East 474 545 44,500 -780 Descending Minneapolis Center
04:10PM 45.8489 -87.9253 76° East 473 544 43,500 -1,020 Descending Minneapolis Center
04:11PM 45.8797 -87.7444 76° East 469 540 42,500 -960 Descending Minneapolis Center
04:12PM 45.9111 -87.5653 76° East 463 533 41,600 -1,020 Descending Minneapolis Center
04:13PM 45.9422 -87.3847 76° East 467 537 40,500 -1,620 Descending Minneapolis Center
04:14PM 45.9789 -87.1567 77° East 484 557 38,300 -1,680 Descending Minneapolis Center
04:15PM 46.0106 -86.9694 76° East 485 558 37,000 -720 Descending Minneapolis Center
04:16PM 46.0408 -86.7819 77° East 481 554 36,900 -60 Descending Minneapolis Center
04:17PM 46.0717 -86.5925 77° East 485 558 36,900 -60 Level Minneapolis Center
04:18PM 46.1022 -86.4028 77° East 486 559 36,800 -1,260 Descending Minneapolis Center
04:19PM 46.1317 -86.2133 77° East 485 558 34,300 -3,300 Descending Minneapolis Center
04:20PM 46.1664 -85.9914 77° East 474 545 30,100 -3,720 Descending Minneapolis Center
04:22PM 46.1997 -85.7675 78° East 474 545 25,900 -3,420 Descending Minneapolis Center
04:23PM 46.2275 -85.5875 77° East 465 535 22,400 -3,000 Descending Minneapolis Center
04:24PM 46.2525 -85.4119 78° East 451 519 19,700 -2,520 Descending Minneapolis Center
04:25PM 46.2783 -85.2406 78° East 444 511 17,200 -2,220 Descending Minneapolis Center
04:26PM 46.3067 -85.0822 75° East 430 495 14,700 -2,940 Descending Minneapolis Center
04:27PM 46.3467 -84.8753 74° East 396 456 10,600 -2,880 Descending Minneapolis Center
04:28PM 46.3700 -84.7372 76° East 336 387 8,800 -1,920 Descending Minneapolis Center
04:29PM 46.3833 -84.6167 81° East 320 368 6,700 -2,700 Descending Toronto Center
04:30PM 46.3167 -84.5500 145° Southeast 290 334 3,400 -3,300 Descending Toronto Center